Time;durP1;ratioP1;P1;durP2;ratioP2;P2;SDS_P1;SDS_P2;PMS_P1;PMS_P2;Temp;Humidity;BMP_temperature;BMP_pressure;BME280_temperature;BME280_humidity;BME280_pressure;Samples;Min_cycle;Max_cycle;Signal;HPM_P1;HPM_P2
2023/12/15 00:00:34;;;;;;;60.30;42.80;;;18.70;99.90;;;;;;4947856;29;20065;-70
2023/12/15 00:02:59;;;;;;;67.53;46.30;;;18.10;99.90;;;;;;4948057;29;20580;-70
2023/12/15 00:05:25;;;;;;;54.63;36.40;;;17.10;99.90;;;;;;4948145;29;20054;-70
2023/12/15 00:07:50;;;;;;;47.58;35.35;;;17.30;99.90;;;;;;4947345;29;20055;-70
2023/12/15 00:10:16;;;;;;;60.47;38.28;;;18.80;99.90;;;;;;4946938;28;20031;-69
2023/12/15 00:12:42;;;;;;;64.55;45.30;;;18.80;99.90;;;;;;4948739;28;20078;-69
2023/12/15 00:15:08;;;;;;;73.32;45.22;;;19.20;99.90;;;;;;4947881;29;20069;-70
2023/12/15 00:17:33;;;;;;;70.60;44.60;;;18.60;99.90;;;;;;4947987;29;20206;-69
2023/12/15 00:19:59;;;;;;;63.67;45.42;;;18.10;99.90;;;;;;4948683;29;20117;-70
2023/12/15 00:22:24;;;;;;;53.83;36.22;;;16.70;99.90;;;;;;4949154;28;20043;-69
2023/12/15 00:24:50;;;;;;;69.45;44.72;;;18.10;99.90;;;;;;4946831;29;20069;-69
2023/12/15 00:27:16;;;;;;;55.05;36.78;;;16.90;99.90;;;;;;4947088;29;20058;-69
2023/12/15 00:29:41;;;;;;;66.38;43.28;;;17.00;99.90;;;;;;4947206;29;20047;-70
2023/12/15 00:32:07;;;;;;;68.13;43.13;;;17.10;99.90;;;;;;4948809;28;20438;-70
2023/12/15 00:34:32;;;;;;;62.40;41.53;;;16.60;99.90;;;;;;4947731;29;20047;-70
2023/12/15 00:36:58;;;;;;;45.50;32.78;;;17.70;99.90;;;;;;4948490;29;20039;-69
2023/12/15 00:39:23;;;;;;;57.85;41.05;;;16.80;99.90;;;;;;4946788;29;20047;-69
2023/12/15 00:41:49;;;;;;;58.17;40.58;;;18.60;99.90;;;;;;4947980;29;20073;-70
2023/12/15 00:44:14;;;;;;;62.03;41.97;;;16.30;99.90;;;;;;4947089;29;20385;-69
2023/12/15 00:46:40;;;;;;;51.90;35.33;;;17.90;99.90;;;;;;4947612;29;20035;-70
2023/12/15 00:49:06;;;;;;;63.25;40.72;;;17.60;99.90;;;;;;4947282;28;20182;-69
2023/12/15 00:51:32;;;;;;;77.63;43.85;;;18.40;99.90;;;;;;4947142;29;20532;-69
2023/12/15 00:53:57;;;;;;;51.88;32.30;;;16.30;99.90;;;;;;4947397;29;20047;-70
2023/12/15 00:56:23;;;;;;;55.28;39.67;;;16.90;99.90;;;;;;4946749;29;20522;-70
2023/12/15 00:58:49;;;;;;;57.78;39.95;;;16.70;99.90;;;;;;4947422;29;20051;-69
2023/12/15 01:01:15;;;;;;;57.60;34.67;;;17.50;99.90;;;;;;4948840;28;20045;-65
2023/12/15 01:03:40;;;;;;;51.83;41.58;;;17.50;99.90;;;;;;4949112;29;20432;-65
2023/12/15 01:06:07;;;;;;;48.28;36.13;;;16.60;99.90;;;;;;4947560;29;20082;-65
2023/12/15 01:08:32;;;;;;;64.78;42.47;;;16.70;99.90;;;;;;4948644;28;20042;-65
2023/12/15 01:10:58;;;;;;;59.28;31.95;;;17.90;99.90;;;;;;4948857;29;20043;-65
2023/12/15 01:13:23;;;;;;;65.45;39.00;;;16.80;99.90;;;;;;4948513;28;20178;-65
2023/12/15 01:15:49;;;;;;;56.20;39.58;;;18.50;99.90;;;;;;4948240;28;20047;-66
2023/12/15 01:18:15;;;;;;;51.17;31.63;;;17.30;99.90;;;;;;4930952;29;20050;-65
2023/12/15 01:20:41;;;;;;;59.33;32.67;;;18.40;99.90;;;;;;4945816;28;20051;-66
2023/12/15 01:23:06;;;;;;;57.55;32.45;;;16.10;99.90;;;;;;4943046;28;20043;-66
2023/12/15 01:25:32;;;;;;;55.58;32.40;;;16.80;99.90;;;;;;4946632;29;20043;-66
2023/12/15 01:27:57;;;;;;;52.97;37.30;;;17.60;99.90;;;;;;4946708;29;20479;-66
2023/12/15 01:30:23;;;;;;;62.70;34.75;;;17.90;99.90;;;;;;4934019;29;20063;-65
2023/12/15 01:32:48;;;;;;;60.97;35.00;;;16.40;99.90;;;;;;4947003;29;20051;-65
2023/12/15 01:35:14;;;;;;;55.85;35.72;;;16.20;99.90;;;;;;4946983;29;20047;-66
2023/12/15 01:37:40;;;;;;;45.33;29.27;;;17.50;99.90;;;;;;4946683;29;20047;-65
2023/12/15 01:40:07;;;;;;;55.67;31.98;;;16.30;99.90;;;;;;4946212;29;20053;-66
2023/12/15 01:42:32;;;;;;;64.15;33.35;;;18.70;99.90;;;;;;4946851;29;20093;-65
2023/12/15 01:44:58;;;;;;;49.03;34.70;;;18.90;99.90;;;;;;4946741;29;20054;-66
2023/12/15 01:47:24;;;;;;;50.40;34.72;;;17.90;99.90;;;;;;4946683;29;20106;-66
2023/12/15 01:49:50;;;;;;;61.17;33.65;;;16.40;99.90;;;;;;4947554;28;20060;-66
2023/12/15 01:52:16;;;;;;;55.70;33.65;;;16.40;99.90;;;;;;4946524;29;20071;-65
2023/12/15 01:54:42;;;;;;;58.90;34.10;;;18.80;99.90;;;;;;4946486;29;20039;-64
2023/12/15 01:57:08;;;;;;;52.08;35.28;;;17.30;99.90;;;;;;4946750;29;20568;-66
2023/12/15 01:59:49;;;;;;;55.35;32.22;;;18.90;99.90;;;;;;4946891;29;20047;-65
2023/12/15 02:02:15;;;;;;;59.95;29.20;;;17.90;99.90;;;;;;4947325;29;20043;-66
2023/12/15 02:04:42;;;;;;;54.22;29.60;;;17.20;99.90;;;;;;4947282;29;20053;-64
2023/12/15 02:07:08;;;;;;;59.17;32.05;;;18.80;99.90;;;;;;4948506;29;20046;-66
2023/12/15 02:09:33;;;;;;;50.30;28.77;;;16.20;99.90;;;;;;4946423;29;20036;-65
2023/12/15 02:11:59;;;;;;;58.25;30.45;;;16.30;99.90;;;;;;4946409;29;20462;-69
2023/12/15 02:14:24;;;;;;;58.78;34.67;;;17.70;99.90;;;;;;4947300;29;20543;-69
2023/12/15 02:16:50;;;;;;;50.33;28.42;;;16.60;99.90;;;;;;4946089;29;20098;-69
2023/12/15 02:19:16;;;;;;;46.95;27.33;;;17.60;99.90;;;;;;4946071;29;20408;-69
2023/12/15 02:21:41;;;;;;;60.50;29.83;;;18.20;99.90;;;;;;4945350;29;20093;-70
2023/12/15 02:24:07;;;;;;;47.90;27.88;;;16.60;99.90;;;;;;4947520;28;20078;-69
2023/12/15 02:26:32;;;;;;;50.20;27.83;;;16.60;99.90;;;;;;4946264;29;20453;-68
2023/12/15 02:28:58;;;;;;;43.25;27.55;;;17.60;99.90;;;;;;4945445;29;20126;-69
2023/12/15 02:31:24;;;;;;;60.67;29.95;;;17.90;99.90;;;;;;4945542;28;20043;-68
2023/12/15 02:33:52;;;;;;;49.78;28.67;;;16.70;99.90;;;;;;4941741;29;20127;-69
2023/12/15 02:36:20;;;;;;;41.10;26.02;;;16.40;99.90;;;;;;4949661;29;20047;-69
2023/12/15 02:38:45;;;;;;;54.55;28.55;;;16.50;99.90;;;;;;4949403;29;20125;-69
2023/12/15 02:41:12;;;;;;;50.72;26.63;;;17.70;99.90;;;;;;4951222;28;20118;-69
2023/12/15 02:43:37;;;;;;;48.88;26.10;;;16.90;99.90;;;;;;4950002;29;20055;-69
2023/12/15 02:46:04;;;;;;;48.53;27.30;;;16.40;99.90;;;;;;4951378;28;20055;-69
2023/12/15 02:48:29;;;;;;;47.42;27.20;;;17.20;99.90;;;;;;4949391;29;20043;-69
2023/12/15 02:50:55;;;;;;;48.42;28.67;;;17.10;99.90;;;;;;4948705;28;20063;-69
2023/12/15 02:53:20;;;;;;;57.97;30.15;;;16.10;99.90;;;;;;4949362;29;20050;-69
2023/12/15 02:55:46;;;;;;;52.63;26.85;;;16.40;99.90;;;;;;4948979;29;20043;-69
2023/12/15 02:58:11;;;;;;;62.58;29.10;;;17.10;99.90;;;;;;4948346;29;20055;-69
2023/12/15 03:00:37;;;;;;;50.25;26.58;;;17.50;99.90;;;;;;4949489;29;20047;-69
2023/12/15 03:03:03;;;;;;;51.83;27.48;;;16.60;99.90;;;;;;4949007;29;20050;-69
2023/12/15 03:05:28;;;;;;;50.88;26.50;;;17.70;99.90;;;;;;4950587;28;20390;-68
2023/12/15 03:07:54;;;;;;;45.25;24.40;;;16.80;99.90;;;;;;4948326;29;20054;-68
2023/12/15 03:10:19;;;;;;;49.17;27.45;;;16.90;99.90;;;;;;4948905;29;20046;-69
2023/12/15 03:12:45;;;;;;;49.15;27.00;;;16.90;99.90;;;;;;4948950;29;20051;-69
2023/12/15 03:15:11;;;;;;;59.33;28.52;;;16.30;99.90;;;;;;4950463;29;20047;-68
2023/12/15 03:17:39;;;;;;;43.10;23.83;;;16.40;99.90;;;;;;4950271;29;20392;-69
2023/12/15 03:20:06;;;;;;;39.75;23.35;;;16.20;99.90;;;;;;4932506;29;20082;-69
2023/12/15 03:22:32;;;;;;;51.35;27.50;;;17.20;99.90;;;;;;4932964;29;20054;-65
2023/12/15 03:24:58;;;;;;;41.55;25.67;;;16.70;99.90;;;;;;4948367;29;20047;-65
2023/12/15 03:27:23;;;;;;;54.55;28.05;;;15.80;99.90;;;;;;4949435;29;20047;-65
2023/12/15 03:29:50;;;;;;;57.25;27.13;;;17.20;99.90;;;;;;4950606;29;20031;-66
2023/12/15 03:32:15;;;;;;;46.85;25.58;;;16.40;99.90;;;;;;4949095;29;20047;-65
2023/12/15 03:34:41;;;;;;;51.88;27.08;;;16.80;99.90;;;;;;4950002;28;20643;-66
2023/12/15 03:37:08;;;;;;;62.13;28.58;;;17.40;99.90;;;;;;4949259;29;20073;-67
2023/12/15 03:39:34;;;;;;;57.20;28.13;;;16.50;99.90;;;;;;4948318;29;20039;-66
2023/12/15 03:42:06;;;;;;;53.17;25.73;;;17.30;99.90;;;;;;4948597;29;20051;-65
2023/12/15 03:44:36;;;;;;;64.63;27.73;;;15.70;99.90;;;;;;4948535;28;20165;-65
2023/12/15 03:47:02;;;;;;;57.15;28.05;;;16.10;99.90;;;;;;4949633;29;20458;-66
2023/12/15 03:49:28;;;;;;;51.85;29.15;;;15.50;99.90;;;;;;4948902;28;20063;-65
2023/12/15 03:51:53;;;;;;;61.13;31.05;;;16.30;99.90;;;;;;4948455;29;20071;-66
2023/12/15 03:54:19;;;;;;;70.70;25.83;;;15.70;99.90;;;;;;4948545;29;20047;-66
2023/12/15 03:56:45;;;;;;;57.35;25.30;;;16.80;99.90;;;;;;4949462;29;20445;-66
2023/12/15 03:59:10;;;;;;;56.70;25.05;;;16.20;99.90;;;;;;4949641;29;20043;-67
2023/12/15 04:01:36;;;;;;;65.38;25.17;;;16.50;99.90;;;;;;4948643;29;20417;-64
2023/12/15 04:04:01;;;;;;;64.85;24.73;;;17.10;99.90;;;;;;4948408;29;20541;-65
2023/12/15 04:06:27;;;;;;;68.85;29.30;;;16.40;99.90;;;;;;4948300;29;20074;-64
2023/12/15 04:08:53;;;;;;;54.65;23.95;;;17.20;99.90;;;;;;4948425;29;20547;-65
2023/12/15 04:11:18;;;;;;;52.47;22.50;;;16.40;99.90;;;;;;4949465;28;20109;-65
2023/12/15 04:13:44;;;;;;;69.35;24.55;;;16.50;99.90;;;;;;4948809;29;20133;-64
2023/12/15 04:16:10;;;;;;;70.82;31.58;;;16.40;99.90;;;;;;4948929;29;20074;-65
2023/12/15 04:18:36;;;;;;;57.83;25.02;;;17.50;99.90;;;;;;4949517;29;20039;-66
2023/12/15 04:21:03;;;;;;;66.15;24.98;;;17.10;99.90;;;;;;4949622;29;20043;-66
2023/12/15 04:23:29;;;;;;;64.03;28.83;;;17.30;99.90;;;;;;4948661;29;20062;-65
2023/12/15 04:25:57;;;;;;;57.53;28.27;;;16.50;99.90;;;;;;4948588;29;20051;-66
2023/12/15 04:28:26;;;;;;;67.32;28.30;;;17.10;99.90;;;;;;4950092;28;20496;-65
2023/12/15 04:30:52;;;;;;;73.70;25.23;;;17.40;99.90;;;;;;4947811;29;20074;-66
2023/12/15 04:33:18;;;;;;;47.72;23.20;;;18.00;99.90;;;;;;4931504;29;20043;-66
2023/12/15 04:35:43;;;;;;;71.70;27.98;;;17.10;99.90;;;;;;4947977;29;20055;-67
2023/12/15 04:38:09;;;;;;;70.20;30.70;;;16.80;99.90;;;;;;4947429;29;20564;-67
2023/12/15 04:40:34;;;;;;;56.47;26.20;;;17.80;99.90;;;;;;4948431;29;20047;-67
2023/12/15 04:43:00;;;;;;;69.03;31.63;;;18.00;99.90;;;;;;4947851;29;20039;-67
2023/12/15 04:45:26;;;;;;;76.70;28.02;;;18.30;99.90;;;;;;4948816;28;20554;-66
2023/12/15 04:47:53;;;;;;;75.90;31.88;;;17.60;99.90;;;;;;4948125;28;20062;-67
2023/12/15 04:50:20;;;;;;;60.67;32.53;;;18.00;99.90;;;;;;4946636;28;20532;-67
2023/12/15 04:52:45;;;;;;;70.60;30.98;;;17.60;99.90;;;;;;4947320;29;20050;-66
2023/12/15 04:55:11;;;;;;;68.57;31.83;;;16.90;99.90;;;;;;4947472;28;20493;-66
2023/12/15 04:57:36;;;;;;;62.63;25.90;;;17.70;99.90;;;;;;4948004;29;20536;-67
2023/12/15 05:00:02;;;;;;;73.25;25.70;;;18.30;99.90;;;;;;4946954;29;20493;-66
2023/12/15 05:02:28;;;;;;;67.78;30.88;;;17.30;99.90;;;;;;4948644;28;20047;-66
2023/12/15 05:04:53;;;;;;;71.05;32.13;;;18.30;99.90;;;;;;4948597;28;20551;-67
2023/12/15 05:07:19;;;;;;;65.93;35.15;;;17.80;99.90;;;;;;4947385;29;20804;-67
2023/12/15 05:09:46;;;;;;;51.65;25.05;;;17.40;99.90;;;;;;4946731;29;20047;-66
2023/12/15 05:12:12;;;;;;;68.15;36.88;;;18.70;99.90;;;;;;4947148;29;20425;-66
2023/12/15 05:14:38;;;;;;;68.18;31.88;;;17.00;99.90;;;;;;4930782;29;20035;-67
2023/12/15 05:17:03;;;;;;;66.63;31.65;;;18.50;99.90;;;;;;4947106;29;20539;-66
2023/12/15 05:19:29;;;;;;;65.82;31.58;;;17.60;99.90;;;;;;4946311;29;20057;-67
2023/12/15 05:21:55;;;;;;;55.50;26.08;;;18.20;99.90;;;;;;4947432;29;20046;-66
2023/12/15 05:24:20;;;;;;;62.63;26.30;;;18.50;99.90;;;;;;4946248;29;20135;-67
2023/12/15 05:26:46;;;;;;;57.30;27.05;;;17.20;99.90;;;;;;4930725;29;20051;-67
2023/12/15 05:29:11;;;;;;;79.38;32.80;;;18.30;99.90;;;;;;4931292;29;20043;-67
2023/12/15 05:31:37;;;;;;;72.68;32.90;;;17.10;99.90;;;;;;4946709;29;20043;-67
2023/12/15 05:34:03;;;;;;;59.90;28.05;;;17.40;99.90;;;;;;4946832;29;20043;-67
2023/12/15 05:36:28;;;;;;;69.47;33.05;;;18.10;99.90;;;;;;4947275;28;20047;-66
2023/12/15 05:38:54;;;;;;;79.43;35.13;;;18.40;99.90;;;;;;4946322;29;20105;-67
2023/12/15 05:41:19;;;;;;;57.65;27.55;;;17.20;99.90;;;;;;4948130;29;20043;-67
2023/12/15 05:43:45;;;;;;;63.28;26.77;;;17.90;99.90;;;;;;4946200;29;20047;-65
2023/12/15 05:46:10;;;;;;;69.03;31.92;;;17.90;99.90;;;;;;4947827;28;20090;-64
2023/12/15 05:48:36;;;;;;;74.88;27.33;;;17.80;99.90;;;;;;4947881;29;20047;-64
2023/12/15 05:51:02;;;;;;;72.70;32.47;;;18.20;99.90;;;;;;4946189;28;20071;-64
2023/12/15 05:53:28;;;;;;;69.28;32.30;;;17.60;99.90;;;;;;4946072;29;20063;-64
2023/12/15 05:55:53;;;;;;;50.38;27.38;;;18.20;99.90;;;;;;4947561;29;20055;-65
2023/12/15 05:58:19;;;;;;;83.82;31.00;;;17.10;99.90;;;;;;4931246;29;20812;-64
2023/12/15 06:00:45;;;;;;;59.05;31.45;;;18.10;99.90;;;;;;4947960;28;20134;-64
2023/12/15 06:03:10;;;;;;;68.13;32.03;;;17.10;99.90;;;;;;4946586;29;20049;-64
2023/12/15 06:05:36;;;;;;;67.00;32.03;;;17.60;99.90;;;;;;4946529;29;20047;-65
2023/12/15 06:08:03;;;;;;;68.22;31.83;;;17.90;99.90;;;;;;4950285;28;20507;-64
2023/12/15 06:10:28;;;;;;;68.85;31.80;;;18.00;99.90;;;;;;4951672;28;20556;-64
2023/12/15 06:12:54;;;;;;;63.15;27.92;;;17.10;99.90;;;;;;4950231;29;20047;-65
2023/12/15 06:15:19;;;;;;;51.00;27.88;;;18.40;99.90;;;;;;4949982;29;20404;-64
2023/12/15 06:17:45;;;;;;;52.38;28.75;;;17.20;99.90;;;;;;4951334;28;20061;-65
2023/12/15 06:20:13;;;;;;;68.60;32.25;;;18.20;99.90;;;;;;4951162;29;20046;-64
2023/12/15 06:22:39;;;;;;;66.47;30.73;;;17.20;99.90;;;;;;4949354;29;20110;-65
2023/12/15 06:25:05;;;;;;;71.47;31.85;;;18.20;99.90;;;;;;4950889;29;20047;-64
2023/12/15 06:27:33;;;;;;;68.30;30.10;;;16.70;99.90;;;;;;4941100;29;20120;-64
2023/12/15 06:29:59;;;;;;;66.10;29.45;;;16.80;99.90;;;;;;4951104;28;20039;-64
2023/12/15 06:32:25;;;;;;;63.25;27.92;;;17.50;99.90;;;;;;4951111;28;20543;-64
2023/12/15 06:34:51;;;;;;;57.60;28.02;;;17.40;99.90;;;;;;4950942;28;20114;-64
2023/12/15 06:37:16;;;;;;;68.22;31.10;;;17.70;99.90;;;;;;4951138;28;20776;-64
2023/12/15 06:39:43;;;;;;;61.08;29.60;;;17.50;99.90;;;;;;4949445;29;20509;-66
2023/12/15 06:42:09;;;;;;;74.30;31.50;;;16.70;99.90;;;;;;4949539;29;20062;-64
2023/12/15 06:44:34;;;;;;;60.28;27.02;;;17.90;99.90;;;;;;4951020;28;20416;-64
2023/12/15 06:47:00;;;;;;;68.22;30.92;;;17.10;99.90;;;;;;4950840;28;20405;-65
2023/12/15 06:49:30;;;;;;;74.90;33.10;;;18.20;99.90;;;;;;4950031;28;20580;-64
2023/12/15 06:51:59;;;;;;;63.67;26.58;;;17.30;99.90;;;;;;4950841;28;20047;-64
2023/12/15 06:54:25;;;;;;;65.72;31.90;;;16.90;99.90;;;;;;4949626;29;20465;-65
2023/12/15 06:56:51;;;;;;;67.43;33.42;;;18.20;99.90;;;;;;4950696;28;20501;-65
2023/12/15 06:59:16;;;;;;;71.35;26.23;;;17.50;99.90;;;;;;4948710;29;20035;-65
2023/12/15 07:01:42;;;;;;;62.33;32.00;;;17.60;99.90;;;;;;4947652;29;20046;-65
2023/12/15 07:04:07;;;;;;;70.18;28.10;;;17.00;99.90;;;;;;4945868;29;20062;-64
2023/12/15 07:06:33;;;;;;;67.95;33.45;;;18.40;99.90;;;;;;4949088;29;20051;-66
2023/12/15 07:08:58;;;;;;;70.43;32.22;;;17.70;99.90;;;;;;4945248;29;20094;-64
2023/12/15 07:11:24;;;;;;;70.65;31.10;;;18.60;99.90;;;;;;4942156;29;20039;-65
2023/12/15 07:13:50;;;;;;;66.70;26.23;;;17.90;99.90;;;;;;4945066;29;20039;-65
2023/12/15 07:16:16;;;;;;;69.00;31.30;;;18.00;99.90;;;;;;4945644;28;20046;-65
2023/12/15 07:18:42;;;;;;;65.30;31.27;;;18.70;99.90;;;;;;4945012;28;20043;-64
2023/12/15 07:21:07;;;;;;;60.63;26.42;;;17.40;99.90;;;;;;4945147;29;20552;-65
2023/12/15 07:23:34;;;;;;;57.72;29.30;;;17.10;99.90;;;;;;4943423;29;20039;-65
2023/12/15 07:26:00;;;;;;;47.60;27.00;;;17.10;99.90;;;;;;4949173;28;20043;-64
2023/12/15 07:28:25;;;;;;;61.40;26.98;;;18.30;99.90;;;;;;4948603;29;20047;-65
2023/12/15 07:30:51;;;;;;;77.22;32.35;;;17.10;99.90;;;;;;4948242;28;20481;-66
2023/12/15 07:33:16;;;;;;;68.38;26.77;;;18.20;99.90;;;;;;4947191;29;20039;-65
2023/12/15 07:35:42;;;;;;;68.15;30.75;;;17.10;99.90;;;;;;4946301;29;20086;-65
2023/12/15 07:38:09;;;;;;;61.15;27.70;;;17.10;99.90;;;;;;4947228;29;20058;-64
2023/12/15 07:40:34;;;;;;;65.07;29.80;;;18.40;99.90;;;;;;4948335;29;20074;-65
2023/12/15 07:43:00;;;;;;;69.82;31.67;;;18.50;99.90;;;;;;4948256;29;20122;-65
2023/12/15 07:45:25;;;;;;;77.68;31.98;;;17.50;99.90;;;;;;4948051;29;20035;-67
2023/12/15 07:47:52;;;;;;;71.35;27.85;;;17.50;99.90;;;;;;4946941;29;20126;-65
2023/12/15 07:50:18;;;;;;;66.50;30.58;;;17.60;99.90;;;;;;4948666;28;20403;-65
2023/12/15 07:52:43;;;;;;;61.10;27.08;;;17.60;99.90;;;;;;4955818;28;20059;-64
2023/12/15 07:55:09;;;;;;;72.47;32.60;;;17.30;99.90;;;;;;4946756;29;20699;-64
2023/12/15 07:57:35;;;;;;;77.10;32.35;;;17.90;99.90;;;;;;4947751;29;20046;-66
2023/12/15 08:00:00;;;;;;;62.78;28.15;;;18.60;99.90;;;;;;4946809;29;20075;-65
2023/12/15 08:02:26;;;;;;;65.00;27.77;;;18.10;99.90;;;;;;4944837;28;20043;-63
2023/12/15 08:04:51;;;;;;;68.45;28.25;;;17.50;99.90;;;;;;4946810;29;20086;-66
2023/12/15 08:07:17;;;;;;;67.45;32.40;;;17.70;99.90;;;;;;4948036;29;20058;-66
2023/12/15 08:09:42;;;;;;;81.13;32.58;;;17.40;99.90;;;;;;4944888;29;20050;-64
2023/12/15 08:12:08;;;;;;;79.25;31.08;;;17.60;99.90;;;;;;4946912;28;20131;-65
2023/12/15 08:14:34;;;;;;;70.15;32.00;;;17.70;99.90;;;;;;4943761;28;20098;-65
2023/12/15 08:16:59;;;;;;;48.08;27.40;;;19.00;99.90;;;;;;4944015;28;20043;-65
2023/12/15 08:19:25;;;;;;;71.70;30.67;;;17.50;99.90;;;;;;4941989;29;20053;-65
2023/12/15 08:21:51;;;;;;;69.85;30.63;;;18.10;99.90;;;;;;4944699;29;20075;-66
2023/12/15 08:24:17;;;;;;;70.22;32.22;;;19.00;99.90;;;;;;4945099;29;20130;-67
2023/12/15 08:26:42;;;;;;;61.53;25.75;;;19.00;99.90;;;;;;4944332;29;20049;-65
2023/12/15 08:29:08;;;;;;;69.35;29.67;;;18.90;99.90;;;;;;4944296;28;20451;-65
2023/12/15 08:31:33;;;;;;;52.67;28.92;;;19.10;99.90;;;;;;4943389;29;20119;-66
2023/12/15 08:33:59;;;;;;;70.00;29.23;;;18.00;99.90;;;;;;4944499;28;20035;-65
2023/12/15 08:36:25;;;;;;;69.45;32.50;;;18.60;99.90;;;;;;4944614;28;20102;-65
2023/12/15 08:38:50;;;;;;;75.53;32.92;;;19.20;99.90;;;;;;4944423;29;20051;-65
2023/12/15 08:41:16;;;;;;;68.18;33.33;;;18.00;99.90;;;;;;4943924;29;20047;-65
2023/12/15 08:43:41;;;;;;;58.33;28.10;;;18.80;99.90;;;;;;4944213;29;20047;-65
2023/12/15 08:46:07;;;;;;;69.65;31.77;;;18.30;99.90;;;;;;4940557;29;20186;-65
2023/12/15 08:48:33;;;;;;;68.88;30.52;;;17.80;99.90;;;;;;4943335;29;20039;-66
2023/12/15 08:50:58;;;;;;;66.93;30.10;;;18.10;99.90;;;;;;4945523;28;20063;-66
2023/12/15 08:53:24;;;;;;;64.30;28.45;;;17.70;99.90;;;;;;4945717;28;20504;-65
2023/12/15 08:55:49;;;;;;;66.75;27.83;;;18.90;99.90;;;;;;4943933;29;20078;-65
2023/12/15 08:58:15;;;;;;;73.05;31.45;;;18.10;99.90;;;;;;4944448;29;20049;-65
2023/12/15 09:00:41;;;;;;;65.75;32.70;;;17.80;99.90;;;;;;4945210;29;20054;-66
2023/12/15 09:03:07;;;;;;;69.45;33.50;;;19.10;99.90;;;;;;4944213;29;20054;-66
2023/12/15 09:05:34;;;;;;;74.18;33.35;;;18.90;99.90;;;;;;4943654;29;20150;-67
2023/12/15 09:08:00;;;;;;;57.13;28.00;;;19.40;99.90;;;;;;4944776;28;20039;-66
2023/12/15 09:10:32;;;;;;;62.60;32.05;;;17.90;99.90;;;;;;4941029;29;20454;-65
2023/12/15 09:12:58;;;;;;;75.35;34.47;;;18.20;99.90;;;;;;4942186;29;20122;-68
2023/12/15 09:15:23;;;;;;;64.85;31.90;;;19.50;99.90;;;;;;4945630;29;20051;-68
2023/12/15 09:17:49;;;;;;;77.38;31.52;;;19.20;99.90;;;;;;4941745;29;20188;-68
2023/12/15 09:20:14;;;;;;;65.05;30.48;;;19.10;99.90;;;;;;4927051;29;20051;-68
2023/12/15 09:22:40;;;;;;;75.70;30.38;;;19.60;99.90;;;;;;4943757;28;20117;-68
2023/12/15 09:25:07;;;;;;;75.88;31.05;;;19.60;99.90;;;;;;4942654;29;20051;-68
2023/12/15 09:27:32;;;;;;;74.88;30.67;;;18.60;99.90;;;;;;4941684;29;20382;-68
2023/12/15 09:29:59;;;;;;;75.07;31.38;;;19.10;99.90;;;;;;4942809;29;20079;-68
2023/12/15 09:32:25;;;;;;;64.88;31.88;;;19.50;99.90;;;;;;4944673;29;20054;-68
2023/12/15 09:34:51;;;;;;;70.15;31.73;;;19.10;99.90;;;;;;4943594;29;20053;-68
2023/12/15 09:37:16;;;;;;;70.10;32.05;;;18.10;99.90;;;;;;4943516;29;20498;-68
2023/12/15 09:39:42;;;;;;;69.25;33.78;;;19.00;99.90;;;;;;4940772;28;20046;-68
2023/12/15 09:42:07;;;;;;;79.68;34.53;;;18.40;99.90;;;;;;4944448;29;20043;-68
2023/12/15 09:44:33;;;;;;;77.88;33.88;;;18.20;99.90;;;;;;4942032;29;20094;-68
2023/12/15 09:46:59;;;;;;;65.45;33.97;;;18.90;99.90;;;;;;4944715;28;20139;-68
2023/12/15 09:49:25;;;;;;;73.25;34.00;;;19.30;99.90;;;;;;4944131;28;20584;-68
2023/12/15 09:51:52;;;;;;;66.30;33.20;;;18.20;99.90;;;;;;4943057;29;20047;-68
2023/12/15 09:54:19;;;;;;;66.25;34.80;;;18.90;99.90;;;;;;4943575;29;20130;-68
2023/12/15 09:56:46;;;;;;;65.88;36.97;;;18.40;99.90;;;;;;4942864;29;20499;-68
2023/12/15 09:59:13;;;;;;;67.35;34.85;;;19.60;99.90;;;;;;4940192;28;20047;-68
2023/12/15 10:01:38;;;;;;;73.30;33.28;;;20.10;99.90;;;;;;4944823;29;20039;-68
2023/12/15 10:04:05;;;;;;;70.25;32.75;;;20.10;99.90;;;;;;4939852;28;20081;-68
2023/12/15 10:06:35;;;;;;;70.82;32.20;;;20.30;99.90;;;;;;4935866;28;20781;-68
2023/12/15 10:09:02;;;;;;;69.95;31.58;;;18.70;99.90;;;;;;4926017;29;20035;-67
2023/12/15 10:11:30;;;;;;;64.15;33.90;;;19.60;99.90;;;;;;4943188;29;20055;-68
2023/12/15 10:13:55;;;;;;;71.70;34.22;;;18.60;99.90;;;;;;4944661;29;20121;-68
2023/12/15 10:16:21;;;;;;;76.97;33.33;;;19.20;99.90;;;;;;4939297;28;20162;-68
2023/12/15 10:18:47;;;;;;;71.38;34.33;;;19.90;99.90;;;;;;4937758;28;20118;-68
2023/12/15 10:21:12;;;;;;;65.65;32.90;;;19.60;99.90;;;;;;4944810;28;20097;-68
2023/12/15 10:23:38;;;;;;;72.18;36.10;;;20.20;99.90;;;;;;4943964;29;20043;-65
2023/12/15 10:26:07;;;;;;;65.20;33.33;;;20.30;99.90;;;;;;4942828;29;20106;-65
2023/12/15 10:28:38;;;;;;;64.78;36.72;;;19.20;99.90;;;;;;4939905;29;20046;-65
2023/12/15 10:31:07;;;;;;;61.28;35.65;;;20.40;99.90;;;;;;4959500;28;20493;-65
2023/12/15 10:33:34;;;;;;;62.92;34.15;;;19.60;99.90;;;;;;4938149;28;20039;-66
2023/12/15 10:36:03;;;;;;;74.20;37.67;;;19.30;99.90;;;;;;4938457;29;20094;-65
2023/12/15 10:38:32;;;;;;;71.40;36.33;;;19.60;99.90;;;;;;4941958;29;20058;-66
2023/12/15 10:40:58;;;;;;;71.72;35.80;;;20.50;99.90;;;;;;4944013;29;20529;-66
2023/12/15 10:43:23;;;;;;;75.07;35.50;;;20.40;99.90;;;;;;4943961;29;20079;-66
2023/12/15 10:45:53;;;;;;;75.25;40.22;;;19.40;99.90;;;;;;4943529;29;20052;-65
2023/12/15 10:48:19;;;;;;;70.78;39.15;;;19.20;99.90;;;;;;4939399;29;20130;-66
2023/12/15 10:50:45;;;;;;;73.70;36.58;;;19.50;99.90;;;;;;4943364;28;20544;-65
2023/12/15 10:53:14;;;;;;;75.30;35.33;;;20.00;99.90;;;;;;4945012;28;20043;-66
2023/12/15 10:55:43;;;;;;;72.72;37.72;;;20.60;99.90;;;;;;4946676;29;20417;-66
2023/12/15 10:58:11;;;;;;;72.43;37.05;;;20.60;99.90;;;;;;4945477;29;20050;-66
2023/12/15 11:00:38;;;;;;;70.68;37.80;;;20.40;99.90;;;;;;4947410;29;20078;-65
2023/12/15 11:03:05;;;;;;;68.82;36.95;;;20.30;99.90;;;;;;4947402;29;20062;-65
2023/12/15 11:05:35;;;;;;;65.20;37.75;;;20.00;99.90;;;;;;4946547;29;20101;-66
2023/12/15 11:08:01;;;;;;;70.15;35.55;;;19.50;99.90;;;;;;4946126;28;20078;-68
2023/12/15 11:10:27;;;;;;;64.97;35.22;;;19.50;99.90;;;;;;4946930;28;20043;-66
2023/12/15 11:12:53;;;;;;;72.78;35.08;;;19.90;99.90;;;;;;4949172;28;20043;-66
2023/12/15 11:15:19;;;;;;;69.70;34.28;;;19.10;99.90;;;;;;4946549;29;20039;-66
2023/12/15 11:18:02;;;;;;;68.72;35.80;;;20.30;99.90;;;;;;4943046;28;20070;-66
2023/12/15 11:20:31;;;;;;;72.53;36.60;;;20.40;99.90;;;;;;4946466;29;20066;-64
2023/12/15 11:22:56;;;;;;;60.05;34.88;;;20.90;99.90;;;;;;4948063;28;20078;-66
2023/12/15 11:25:29;;;;;;;63.78;32.65;;;20.50;99.90;;;;;;4946645;29;21929;-64
2023/12/15 11:28:09;;;;;;;63.55;32.55;;;20.90;99.90;;;;;;4943511;29;20051;-65
2023/12/15 11:30:44;;;;;;;61.58;34.35;;;19.50;99.90;;;;;;4928444;29;20050;-66
2023/12/15 11:33:32;;;;;;;65.00;33.22;;;20.90;99.90;;;;;;4946353;29;20053;-65
2023/12/15 11:36:01;;;;;;;63.45;32.92;;;19.30;99.90;;;;;;4945945;29;20059;-66
2023/12/15 11:38:27;;;;;;;68.50;35.33;;;19.70;99.90;;;;;;4943090;29;20086;-65
2023/12/15 11:40:53;;;;;;;61.60;32.50;;;20.50;99.90;;;;;;4947909;28;20077;-65
2023/12/15 11:43:19;;;;;;;60.95;35.45;;;20.00;99.90;;;;;;4947181;29;20675;-65
2023/12/15 11:45:46;;;;;;;63.20;34.03;;;19.50;99.90;;;;;;4930622;29;20090;-66
2023/12/15 11:48:12;;;;;;;65.30;33.55;;;20.90;99.90;;;;;;4944778;29;20243;-64
2023/12/15 11:50:46;;;;;;;64.38;33.17;;;19.70;99.90;;;;;;4945918;28;20147;-65
2023/12/15 11:53:13;;;;;;;62.33;32.03;;;19.30;99.90;;;;;;4947752;29;20067;-65
2023/12/15 11:55:40;;;;;;;55.78;31.42;;;21.50;99.90;;;;;;4945679;29;20450;-66
2023/12/15 11:58:06;;;;;;;60.97;30.48;;;20.80;99.90;;;;;;4945759;28;20416;-68
2023/12/15 12:00:35;;;;;;;60.97;31.70;;;20.00;99.90;;;;;;4946209;29;20054;-66
2023/12/15 12:03:00;;;;;;;62.78;30.52;;;21.90;99.90;;;;;;4945048;29;20050;-66
2023/12/15 12:05:30;;;;;;;56.67;30.77;;;20.60;99.90;;;;;;4945121;28;20051;-65
2023/12/15 12:08:00;;;;;;;62.78;30.48;;;19.80;99.90;;;;;;4945271;28;20413;-65
2023/12/15 12:10:32;;;;;;;56.53;30.45;;;19.40;99.90;;;;;;4945625;29;20043;-65
2023/12/15 12:12:59;;;;;;;57.83;32.80;;;17.20;99.90;;;;;;4944660;28;20091;-66
2023/12/15 12:15:25;;;;;;;59.70;32.70;;;14.90;99.90;;;;;;4946887;29;20047;-66
2023/12/15 12:17:52;;;;;;;55.58;30.77;;;15.50;99.90;;;;;;4945193;29;20047;-65
2023/12/15 12:20:17;;;;;;;64.38;31.65;;;15.90;99.90;;;;;;4947073;28;20461;-66
2023/12/15 12:22:44;;;;;;;61.75;31.55;;;15.00;99.90;;;;;;4945155;28;20199;-65